createdAt,value
2018-09-04T00:01:47.243Z,93860.73
2018-09-04T00:04:14.801Z,93857.44
2018-09-04T00:06:42.387Z,93857.22
2018-09-04T00:09:10.551Z,93857.23
2018-09-04T00:11:38.081Z,93857.86
2018-09-04T00:14:06.043Z,93865.97
2018-09-04T00:16:33.586Z,93863.16
2018-09-04T00:19:01.145Z,93859.48
2018-09-04T00:21:28.674Z,93859.85
2018-09-04T00:23:56.210Z,93863.53
2018-09-04T00:26:24.018Z,93859.01
2018-09-04T00:28:51.570Z,93862.57
2018-09-04T00:31:19.116Z,93863.39
2018-09-04T00:33:46.650Z,93866.84
2018-09-04T00:36:14.306Z,93868.24
2018-09-04T00:38:41.881Z,93866.11
2018-09-04T00:41:09.796Z,93865.42
2018-09-04T00:43:37.319Z,93866.84
2018-09-04T00:46:04.822Z,93867.42
2018-09-04T00:48:32.630Z,93865.70
2018-09-04T00:51:00.217Z,93867.84
2018-09-04T00:53:27.753Z,93867.03
2018-09-04T00:55:55.329Z,93870.36
2018-09-04T00:58:22.882Z,93864.41
2018-09-04T01:00:50.430Z,93868.28
2018-09-04T01:03:17.939Z,93861.20
2018-09-04T01:05:45.563Z,93865.95
2018-09-04T01:08:13.197Z,93861.39
2018-09-04T01:10:40.710Z,93862.20
2018-09-04T01:13:08.259Z,93861.41
2018-09-04T01:15:35.832Z,93866.45
2018-09-04T01:18:03.414Z,93861.81
2018-09-04T01:20:32.198Z,93863.13
2018-09-04T01:22:59.726Z,93869.70
2018-09-04T01:25:27.339Z,93869.30
2018-09-04T01:27:54.891Z,93866.55
2018-09-04T01:30:22.461Z,93866.63
2018-09-04T01:32:49.988Z,93865.33
2018-09-04T01:35:17.522Z,93873.31
2018-09-04T01:37:45.048Z,93868.28
2018-09-04T01:40:12.569Z,93870.48
2018-09-04T01:42:40.145Z,93865.16
2018-09-04T01:45:07.678Z,93860.80
2018-09-04T01:47:35.218Z,93857.77
2018-09-04T01:50:02.786Z,93858.05
2018-09-04T01:52:30.305Z,93865.43
2018-09-04T01:54:57.874Z,93863.41
2018-09-04T01:57:25.385Z,93864.55
2018-09-04T01:59:52.911Z,93874.05
2018-09-04T02:02:20.449Z,93869.22
2018-09-04T02:04:47.994Z,93869.22
2018-09-04T02:07:15.898Z,93870.41
2018-09-04T02:09:43.501Z,93868.94
2018-09-04T02:12:11.077Z,93873.30
2018-09-04T02:14:38.626Z,93868.80
2018-09-04T02:17:06.169Z,93869.59
2018-09-04T02:19:33.731Z,93864.30
2018-09-04T02:22:01.255Z,93868.86
2018-09-04T02:24:29.074Z,93870.12
2018-09-04T02:26:56.597Z,93869.22
2018-09-04T02:29:24.114Z,93873.23
2018-09-04T02:31:51.988Z,93868.59
2018-09-04T02:34:19.594Z,93867.59
2018-09-04T02:36:47.107Z,93864.51
2018-09-04T02:39:14.655Z,93864.71
2018-09-04T02:41:42.196Z,93869.15
2018-09-04T02:44:09.803Z,93868.65
2018-09-04T02:46:37.519Z,93867.02
2018-09-04T02:49:05.497Z,93869.12
2018-09-04T02:51:33.379Z,93868.91
2018-09-04T02:54:00.969Z,93868.22
2018-09-04T02:56:28.531Z,93867.72
2018-09-04T02:58:56.161Z,93870.12
2018-09-04T03:01:23.663Z,93865.87
2018-09-04T03:03:51.183Z,93868.10
2018-09-04T03:06:18.706Z,93868.70
2018-09-04T03:08:46.223Z,93870.39
2018-09-04T03:11:13.750Z,93868.80
2018-09-04T03:13:41.292Z,93867.08
2018-09-04T03:16:08.856Z,93874.33
2018-09-04T03:18:36.391Z,93871.75
2018-09-04T03:21:03.901Z,93868.48
2018-09-04T03:23:31.762Z,93863.80
2018-09-04T03:25:59.290Z,93867.08
2018-09-04T03:28:26.832Z,93857.98
2018-09-04T03:30:54.748Z,93851.88
2018-09-04T03:33:22.259Z,93846.51
2018-09-04T03:35:49.778Z,93839.38
2018-09-04T03:38:18.454Z,93842.88
2018-09-04T03:40:46.046Z,93840.66
2018-09-04T03:43:13.623Z,93836.91
2018-09-04T03:45:41.145Z,93837.54
2018-09-04T03:48:09.119Z,93839.95
2018-09-04T03:50:37.519Z,93843.95
2018-09-04T03:53:05.062Z,93846.98
2018-09-04T03:55:32.892Z,93844.35
2018-09-04T03:58:00.422Z,93843.79
2018-09-04T04:00:27.948Z,93844.00
2018-09-04T04:02:55.771Z,93847.83
2018-09-04T04:05:23.294Z,93847.20
2018-09-04T04:07:50.811Z,93848.54
2018-09-04T04:10:18.659Z,93857.14
2018-09-04T04:12:46.179Z,93858.77
2018-09-04T04:15:13.722Z,93858.16
2018-09-04T04:17:41.266Z,93860.72
2018-09-04T04:20:08.938Z,93864.15
2018-09-04T04:22:36.957Z,93863.75
2018-09-04T04:25:04.786Z,93865.50
2018-09-04T04:27:32.298Z,93860.95
2018-09-04T04:29:59.896Z,93855.82
2018-09-04T04:32:27.503Z,93862.02
2018-09-04T04:34:55.089Z,93859.94
2018-09-04T04:37:22.622Z,93862.84
2018-09-04T04:39:50.141Z,93860.27
2018-09-04T04:42:17.661Z,93860.81
2018-09-04T04:44:45.175Z,93872.30
2018-09-04T04:47:12.686Z,93870.99
2018-09-04T04:49:41.292Z,93874.33
2018-09-04T04:52:08.835Z,93869.09
2018-09-04T04:54:36.376Z,93870.44
2018-09-04T04:57:03.906Z,93877.55
2018-09-04T04:59:31.431Z,93884.83
2018-09-04T05:01:59.246Z,93880.58
2018-09-04T05:04:26.775Z,93889.84
2018-09-04T05:06:54.378Z,93888.22
2018-09-04T05:09:21.994Z,93895.09
2018-09-04T05:11:49.542Z,93899.95
2018-09-04T05:14:17.089Z,93899.32
2018-09-04T05:16:44.614Z,93910.09
2018-09-04T05:19:12.151Z,93902.66
2018-09-04T05:21:39.735Z,93905.06
2018-09-04T05:24:07.266Z,93902.25
2018-09-04T05:26:34.804Z,93910.98
2018-09-04T05:29:02.325Z,93905.99
2018-09-04T05:31:34.536Z,93909.56
2018-09-04T05:34:02.154Z,93917.19
2018-09-04T05:36:29.655Z,93921.20
2018-09-04T05:38:57.151Z,93915.56
2018-09-04T05:41:24.647Z,93917.42
2018-09-04T05:43:57.289Z,93914.72
2018-09-04T05:46:34.774Z,93914.52
2018-09-04T05:49:02.544Z,93919.06
2018-09-04T05:51:30.046Z,93924.31
2018-09-04T05:53:57.765Z,93923.07
2018-09-04T05:56:25.375Z,93912.11
2018-09-04T05:58:52.932Z,93914.08
2018-09-04T06:01:20.522Z,93910.97
2018-09-04T06:03:48.049Z,93912.74
2018-09-04T06:06:15.542Z,93920.47
2018-09-04T06:08:43.090Z,93921.95
2018-09-04T06:11:10.605Z,93915.59
2018-09-04T06:13:38.122Z,93921.81
2018-09-04T06:16:05.671Z,93912.55
2018-09-04T06:18:33.209Z,93916.75
2018-09-04T06:21:00.738Z,93920.31
2018-09-04T06:23:28.283Z,93913.44
2018-09-04T06:25:55.879Z,93918.16
2018-09-04T06:28:23.390Z,93916.70
2018-09-04T06:30:50.990Z,93909.28
2018-09-04T06:33:18.475Z,93917.59
2018-09-04T06:35:45.966Z,93917.45
2018-09-04T06:38:13.468Z,93914.81
2018-09-04T06:40:40.964Z,93917.15
2018-09-04T06:43:08.470Z,93910.23
2018-09-04T06:45:35.946Z,93912.33
2018-09-04T06:48:03.419Z,93910.14
2018-09-04T06:50:30.963Z,93909.80
2018-09-04T06:52:58.458Z,93906.21
2018-09-04T06:55:25.930Z,93904.13
2018-09-04T06:57:53.527Z,93909.08
2018-09-04T07:00:21.049Z,93906.73
2018-09-04T07:02:48.558Z,93923.14
2018-09-04T07:05:16.062Z,93919.08
2018-09-04T07:07:43.606Z,93916.80
2018-09-04T07:10:11.155Z,93911.77
2018-09-04T07:12:39.033Z,93912.17
2018-09-04T07:15:06.980Z,93904.60
2018-09-04T07:17:34.472Z,93914.64
2018-09-04T07:20:02.028Z,93908.70
2018-09-04T07:22:29.558Z,93908.16
2018-09-04T07:24:57.059Z,93904.08
2018-09-04T07:27:24.570Z,93904.83
2018-09-04T07:29:52.094Z,93902.05
2018-09-04T07:32:19.587Z,93909.80
2018-09-04T07:34:47.074Z,93912.91
2018-09-04T07:37:14.647Z,93917.45
2018-09-04T07:39:42.141Z,93914.61
2018-09-04T07:42:09.670Z,93913.61
2018-09-04T07:44:37.186Z,93914.47
2018-09-04T07:47:04.978Z,93911.14
2018-09-04T07:49:32.467Z,93913.91
2018-09-04T07:51:59.968Z,93905.23
2018-09-04T07:54:27.518Z,93907.51
2018-09-04T07:56:55.137Z,93906.53
2018-09-04T07:59:22.639Z,93900.95
2018-09-04T08:01:50.129Z,93903.27
2018-09-04T08:04:17.748Z,93903.72
2018-09-04T08:06:45.255Z,93907.91
2018-09-04T08:09:12.770Z,93910.73
2018-09-04T08:11:40.300Z,93915.17
2018-09-04T08:14:07.798Z,93911.96
2018-09-04T08:16:35.878Z,93910.12
2018-09-04T08:19:03.403Z,93905.91
2018-09-04T08:21:34.397Z,93900.33
2018-09-04T08:24:02.331Z,93898.05
2018-09-04T08:26:29.836Z,93890.91
2018-09-04T08:28:57.382Z,93883.34
2018-09-04T08:31:24.915Z,93885.75
2018-09-04T08:33:52.452Z,93887.30
2018-09-04T08:36:19.968Z,93879.34
2018-09-04T08:38:48.297Z,93889.63
2018-09-04T08:41:15.807Z,93885.19
2018-09-04T08:43:43.374Z,93887.48
2018-09-04T08:46:10.912Z,93886.55
2018-09-04T08:48:38.448Z,93883.95
2018-09-04T08:51:06.049Z,93889.33
2018-09-04T08:53:33.723Z,93886.55
2018-09-04T08:56:01.206Z,93891.85
2018-09-04T09:01:25.564Z,93883.63
2018-09-04T09:03:53.238Z,93885.47
2018-09-04T09:06:20.722Z,93883.22
2018-09-04T09:08:48.391Z,93881.08
2018-09-04T09:11:15.959Z,93886.25
2018-09-04T09:13:43.514Z,93885.78
2018-09-04T09:16:11.119Z,93884.67
2018-09-04T09:18:38.637Z,93881.81
2018-09-04T09:21:06.158Z,93875.81
2018-09-04T09:23:33.708Z,93881.91
2018-09-04T09:26:01.273Z,93878.30
2018-09-04T09:28:28.814Z,93881.42
2018-09-04T09:30:56.522Z,93882.92
2018-09-04T09:33:24.073Z,93876.78
2018-09-04T09:35:51.713Z,93880.48
2018-09-04T09:38:19.331Z,93880.48
2018-09-04T09:40:46.892Z,93873.77
2018-09-04T09:43:14.466Z,93867.86
2018-09-04T09:45:42.034Z,93874.77
2018-09-04T09:48:09.651Z,93872.13
2018-09-04T09:50:37.216Z,93881.61
2018-09-04T09:53:04.921Z,93861.00
2018-09-04T09:55:32.394Z,93867.23
2018-09-04T09:57:59.961Z,93870.51
2018-09-04T10:00:33.209Z,93873.89
2018-09-04T10:03:08.436Z,93872.66
2018-09-04T10:05:36.086Z,93866.30
2018-09-04T10:08:03.725Z,93865.11
2018-09-04T10:10:31.200Z,93866.80
2018-09-04T10:12:58.743Z,93864.10
2018-09-04T10:15:26.371Z,93873.53
2018-09-04T10:17:54.313Z,93875.88
2018-09-04T10:20:21.870Z,93869.59
2018-09-04T10:22:49.463Z,93862.20
2018-09-04T10:25:17.014Z,93861.81
2018-09-04T10:27:44.556Z,93859.92
2018-09-04T10:30:13.762Z,93849.38
2018-09-04T10:32:50.109Z,93853.56
2018-09-04T10:35:17.879Z,93855.70
2018-09-04T10:37:45.439Z,93857.45
2018-09-04T10:40:18.462Z,93858.10
2018-09-04T10:42:46.011Z,93862.42
2018-09-04T10:45:19.352Z,93857.28
2018-09-04T10:47:46.952Z,93860.46
2018-09-04T10:50:14.494Z,93844.78
2018-09-04T10:52:42.014Z,93847.08
2018-09-04T10:55:09.638Z,93840.25
2018-09-04T10:57:37.229Z,93846.12
2018-09-04T11:00:04.961Z,93845.91
2018-09-04T11:02:32.551Z,93847.87
2018-09-04T11:05:00.214Z,93841.53
2018-09-04T11:07:27.744Z,93837.73
2018-09-04T11:09:55.453Z,93836.71
2018-09-04T11:12:23.138Z,93836.80
2018-09-04T11:14:50.742Z,93838.35
2018-09-04T11:17:18.326Z,93840.36
2018-09-04T11:19:45.910Z,93844.55
2018-09-04T11:22:13.505Z,93832.53
2018-09-04T11:24:41.034Z,93837.55
2018-09-04T11:27:08.574Z,93838.06
2018-09-04T11:29:36.163Z,93830.45
2018-09-04T11:32:03.746Z,93830.41
2018-09-04T11:34:31.626Z,93832.34
2018-09-04T11:36:59.198Z,93834.06
2018-09-04T11:39:26.738Z,93829.71
2018-09-04T11:41:54.258Z,93829.02
2018-09-04T11:44:21.812Z,93832.02
2018-09-04T11:46:49.440Z,93829.80
2018-09-04T11:49:16.990Z,93830.17
2018-09-04T11:51:44.642Z,93832.64
2018-09-04T11:54:12.223Z,93832.91
2018-09-04T11:56:40.462Z,93824.52
2018-09-04T11:59:08.258Z,93828.03
2018-09-04T12:01:37.410Z,93830.28
2018-09-04T12:04:05.198Z,93827.80
2018-09-04T12:06:32.756Z,93828.07
2018-09-04T12:09:00.325Z,93831.21
2018-09-04T12:11:27.875Z,93826.20
2018-09-04T12:13:55.427Z,93836.30
2018-09-04T12:16:22.978Z,93833.21
2018-09-04T12:18:50.539Z,93830.38
2018-09-04T12:21:18.211Z,93830.88
2018-09-04T12:23:45.711Z,93828.30
2018-09-04T12:26:13.230Z,93821.95
2018-09-04T12:28:40.747Z,93821.95
2018-09-04T12:31:08.794Z,93825.55
2018-09-04T12:33:36.290Z,93820.22
2018-09-04T12:36:04.153Z,93823.29
2018-09-04T12:38:34.088Z,93821.55
2018-09-04T12:41:06.661Z,93824.59
2018-09-04T12:43:35.459Z,93825.27
2018-09-04T12:46:02.923Z,93822.14
2018-09-04T12:48:31.096Z,93832.45
2018-09-04T12:50:59.748Z,93814.39
2018-09-04T12:53:27.970Z,93817.13
2018-09-04T12:55:55.542Z,93818.87
2018-09-04T12:58:23.046Z,93814.89
2018-09-04T13:00:51.776Z,93817.77
2018-09-04T13:03:21.635Z,93816.47
2018-09-04T13:05:49.207Z,93819.66
2018-09-04T13:08:17.850Z,93821.56
2018-09-04T13:10:45.426Z,93823.19
2018-09-04T13:13:12.966Z,93814.88
2018-09-04T13:15:42.558Z,93815.11
2018-09-04T13:18:10.062Z,93818.82
2018-09-04T13:20:37.534Z,93822.56
2018-09-04T13:23:05.276Z,93822.90
2018-09-04T13:25:32.751Z,93816.99
2018-09-04T13:28:00.266Z,93810.75
2018-09-04T13:30:27.875Z,93822.56
2018-09-04T13:32:55.430Z,93821.55
2018-09-04T13:35:22.945Z,93824.42
2018-09-04T13:37:50.485Z,93823.11
2018-09-04T13:40:18.063Z,93814.77
2018-09-04T13:42:45.663Z,93816.14
2018-09-04T13:45:13.227Z,93815.09
2018-09-04T13:47:40.814Z,93814.61
2018-09-04T13:50:08.424Z,93823.17
2018-09-04T13:52:35.957Z,93819.96
2018-09-04T13:55:03.511Z,93818.88
2018-09-04T13:57:31.011Z,93816.75
2018-09-04T13:59:58.525Z,93818.13
2018-09-04T14:02:26.326Z,93813.56
2018-09-04T14:04:53.843Z,93813.81
2018-09-04T14:07:21.665Z,93817.27
2018-09-04T14:09:49.172Z,93815.16
2018-09-04T14:12:16.659Z,93825.14
2018-09-04T14:14:44.161Z,93826.45
2018-09-04T14:17:14.686Z,93828.61
2018-09-04T14:19:42.187Z,93822.23
2018-09-04T14:22:09.685Z,93821.69
2018-09-04T14:24:37.206Z,93820.62
2018-09-04T14:27:04.841Z,93818.46
2018-09-04T14:32:00.307Z,93818.96
2018-09-04T14:34:27.898Z,93811.91
2018-09-04T14:36:55.655Z,93814.09
2018-09-04T14:39:23.223Z,93812.47
2018-09-04T14:41:50.750Z,93811.95
2018-09-04T14:44:18.300Z,93813.25
2018-09-04T14:46:46.236Z,93818.41
2018-09-04T14:49:14.456Z,93828.61
2018-09-04T14:51:42.300Z,93823.81
2018-09-04T14:56:07.487Z,93826.73
2018-09-04T14:58:35.100Z,93833.96
2018-09-04T15:01:02.645Z,93818.73
2018-09-04T15:03:30.192Z,93823.78
2018-09-04T15:05:57.748Z,93826.73
2018-09-04T15:08:25.208Z,93828.36
2018-09-04T15:10:52.726Z,93828.63
2018-09-04T15:13:20.255Z,93833.69
2018-09-04T15:15:47.895Z,93830.75
2018-09-04T15:18:15.342Z,93835.03
2018-09-04T15:20:43.225Z,93837.17
2018-09-04T15:23:10.809Z,93838.48
2018-09-04T15:25:38.571Z,93836.08
2018-09-04T15:28:06.074Z,93835.53
2018-09-04T15:30:33.571Z,93832.04
2018-09-04T15:33:01.354Z,93832.33
2018-09-04T15:35:28.906Z,93834.98
2018-09-04T15:37:56.440Z,93829.93
2018-09-04T15:40:23.911Z,93834.47
2018-09-04T15:42:51.496Z,93832.36
2018-09-04T15:45:19.331Z,93830.98
2018-09-04T15:47:46.945Z,93831.79
2018-09-04T15:50:14.454Z,93832.30
2018-09-04T15:52:41.967Z,93830.45
2018-09-04T15:55:09.769Z,93827.50
2018-09-04T15:57:37.264Z,93827.16
2018-09-04T16:00:04.830Z,93829.56
2018-09-04T16:02:32.470Z,93822.38
2018-09-04T16:04:59.972Z,93831.16
2018-09-04T16:07:27.439Z,93829.56
2018-09-04T16:09:56.199Z,93833.34
2018-09-04T16:12:23.632Z,93831.69
2018-09-04T16:14:51.355Z,93835.77
2018-09-04T16:17:18.880Z,93834.95
2018-09-04T16:19:47.028Z,93833.30
2018-09-04T16:22:15.631Z,93832.47
2018-09-04T16:24:43.246Z,93836.47
2018-09-04T16:27:10.895Z,93833.80
2018-09-04T16:29:38.863Z,93826.33
2018-09-04T16:32:06.855Z,93830.67
2018-09-04T16:34:34.636Z,93836.56
2018-09-04T16:37:02.260Z,93832.99
2018-09-04T16:39:30.812Z,93836.45
2018-09-04T16:41:58.338Z,93836.45
2018-09-04T16:44:25.863Z,93834.81
2018-09-04T16:46:53.391Z,93830.03
2018-09-04T16:49:24.776Z,93835.38
2018-09-04T16:51:52.277Z,93835.41
2018-09-04T16:54:20.863Z,93836.94
2018-09-04T16:56:48.395Z,93838.52
2018-09-04T16:59:15.908Z,93843.36
2018-09-04T17:01:43.817Z,93841.67
2018-09-04T17:04:11.327Z,93840.30
2018-09-04T17:06:38.851Z,93840.86
2018-09-04T17:09:06.834Z,93841.10
2018-09-04T17:11:34.476Z,93845.91
2018-09-04T17:14:01.975Z,93835.21
2018-09-04T17:16:29.529Z,93837.91
2018-09-04T17:18:57.088Z,93840.30
2018-09-04T17:21:24.589Z,93847.06
2018-09-04T17:23:52.081Z,93851.59
2018-09-04T17:26:19.586Z,93859.03
2018-09-04T17:28:47.151Z,93857.95
2018-09-04T17:31:14.707Z,93864.22
2018-09-04T17:33:42.267Z,93866.36
2018-09-04T17:36:09.798Z,93869.44
2018-09-04T17:38:37.307Z,93874.70
2018-09-04T17:41:04.856Z,93870.95
2018-09-04T17:43:32.454Z,93878.30
2018-09-04T17:46:00.031Z,93880.59
2018-09-04T17:48:27.583Z,93879.87
2018-09-04T17:50:55.122Z,93884.30
2018-09-04T17:53:22.626Z,93880.67
2018-09-04T17:55:50.127Z,93882.63
2018-09-04T17:58:17.926Z,93885.52
2018-09-04T18:00:45.485Z,93895.08
2018-09-04T18:03:13.111Z,93898.55
2018-09-04T18:05:40.789Z,93901.92
2018-09-04T18:08:08.320Z,93907.25
2018-09-04T18:10:35.999Z,93903.48
2018-09-04T18:13:03.495Z,93913.32
2018-09-04T18:15:31.000Z,93909.05
2018-09-04T18:17:59.531Z,93913.63
2018-09-04T18:20:27.092Z,93916.28
2018-09-04T18:22:54.611Z,93916.97
2018-09-04T18:25:22.210Z,93918.09
2018-09-04T18:27:49.721Z,93918.48
2018-09-04T18:30:17.801Z,93934.53
2018-09-04T18:32:45.320Z,93936.53
2018-09-04T18:35:12.838Z,93932.89
2018-09-04T18:37:40.360Z,93935.20
2018-09-04T18:40:07.871Z,93938.50
2018-09-04T18:42:35.438Z,93938.37
2018-09-04T18:45:03.041Z,93940.77
2018-09-04T18:47:30.600Z,93942.88
2018-09-04T18:49:58.142Z,93934.98
2018-09-04T18:52:25.706Z,93945.22
2018-09-04T18:54:53.225Z,93941.59
2018-09-04T18:57:20.738Z,93946.27
2018-09-04T18:59:48.314Z,93940.28
2018-09-04T19:02:15.891Z,93941.33
2018-09-04T19:04:43.414Z,93940.92
2018-09-04T19:07:10.953Z,93952.91
2018-09-04T19:09:38.487Z,93950.84
2018-09-04T19:12:06.098Z,93952.06
2018-09-04T19:14:33.692Z,93950.83
2018-09-04T19:17:01.256Z,93955.55
2018-09-04T19:19:28.949Z,93962.44
2018-09-04T19:21:56.512Z,93952.66
2018-09-04T19:24:24.146Z,93955.81
2018-09-04T19:26:51.680Z,93962.55
2018-09-04T19:29:19.198Z,93959.90
2018-09-04T19:31:46.785Z,93958.55
2018-09-04T19:34:14.357Z,93959.79
2018-09-04T19:36:41.871Z,93961.30
2018-09-04T19:39:10.038Z,93957.73
2018-09-04T19:41:37.810Z,93963.86
2018-09-04T19:44:05.382Z,93962.13
2018-09-04T19:46:32.936Z,93965.39
2018-09-04T19:49:00.515Z,93961.84
2018-09-04T19:51:27.985Z,93968.34
2018-09-04T19:53:55.462Z,93960.62
2018-09-04T19:56:23.067Z,93965.48
2018-09-04T19:58:50.659Z,93970.30
2018-09-04T20:01:18.231Z,93971.68
2018-09-04T20:03:45.799Z,93982.16
2018-09-04T20:06:13.419Z,93978.26
2018-09-04T20:08:41.114Z,93981.57
2018-09-04T20:11:08.640Z,93984.20
2018-09-04T20:13:36.136Z,93979.11
2018-09-04T20:16:03.708Z,93984.09
2018-09-04T20:18:31.227Z,93987.06
2018-09-04T20:20:58.756Z,93985.94
2018-09-04T20:23:26.332Z,93986.41
2018-09-04T20:25:53.823Z,93990.38
2018-09-04T20:28:21.554Z,93984.92
2018-09-04T20:30:49.119Z,93986.28
2018-09-04T20:33:16.640Z,93981.45
2018-09-04T20:35:44.230Z,93986.66
2018-09-04T20:38:11.758Z,93982.18
2018-09-04T20:40:39.250Z,93986.45
2018-09-04T20:43:06.873Z,93989.98
2018-09-04T20:45:34.426Z,93980.21
2018-09-04T20:48:01.932Z,93984.53
2018-09-04T20:50:29.481Z,93988.50
2018-09-04T20:52:56.990Z,93994.69
2018-09-04T20:55:24.572Z,93990.31
2018-09-04T20:57:57.877Z,93987.83
2018-09-04T21:00:31.136Z,93989.20
2018-09-04T21:03:04.291Z,93991.06
2018-09-04T21:05:37.407Z,93991.19
2018-09-04T21:08:15.042Z,93994.72
2018-09-04T21:10:42.972Z,93985.33
2018-09-04T21:13:11.360Z,93988.79
2018-09-04T21:15:38.988Z,93988.86
2018-09-04T21:18:06.646Z,93988.41
2018-09-04T21:20:34.151Z,93986.80
2018-09-04T21:23:01.732Z,93985.47
2018-09-04T21:25:29.338Z,93986.66
2018-09-04T21:27:56.867Z,93977.39
2018-09-04T21:30:24.463Z,93982.69
2018-09-04T21:32:51.982Z,93978.72
2018-09-04T21:35:19.774Z,93979.60
2018-09-04T21:37:47.361Z,93975.17
2018-09-04T21:40:14.858Z,93972.23
2018-09-04T21:42:42.596Z,93973.55
2018-09-04T21:45:10.127Z,93972.18
2018-09-04T21:47:37.649Z,93972.84
2018-09-04T21:50:05.526Z,93965.47
2018-09-04T21:52:33.029Z,93968.44
2018-09-04T21:55:00.552Z,93969.45
2018-09-04T21:57:28.027Z,93971.78
2018-09-04T21:59:55.574Z,93966.95
2018-09-04T22:02:23.106Z,93967.97
2018-09-04T22:04:50.770Z,93970.78
2018-09-04T22:07:18.274Z,93971.83
2018-09-04T22:09:45.767Z,93970.20
2018-09-04T22:12:13.275Z,93972.39
2018-09-04T22:14:41.074Z,93972.84
2018-09-04T22:17:08.596Z,93967.98
2018-09-04T22:19:36.126Z,93969.33
2018-09-04T22:22:03.714Z,93972.99
2018-09-04T22:24:33.646Z,93972.39
2018-09-04T22:27:04.066Z,93976.80
2018-09-04T22:29:32.048Z,93980.47
2018-09-04T22:31:59.685Z,93971.58
2018-09-04T22:34:27.230Z,93967.72
2018-09-04T22:36:54.690Z,93972.66
2018-09-04T22:39:22.262Z,93967.97
2018-09-04T22:41:49.742Z,93972.36
2018-09-04T22:44:17.321Z,93968.99
2018-09-04T22:46:44.820Z,93965.60
2018-09-04T22:49:12.350Z,93966.05
2018-09-04T22:51:39.826Z,93965.51
2018-09-04T22:54:07.649Z,93967.06
2018-09-04T22:56:35.811Z,93965.03
2018-09-04T22:59:03.436Z,93969.41
2018-09-04T23:01:31.422Z,93961.62
2018-09-04T23:03:58.926Z,93966.92
2018-09-04T23:06:26.429Z,93966.47
2018-09-04T23:08:53.935Z,93963.85
2018-09-04T23:11:21.419Z,93959.44
2018-09-04T23:13:49.263Z,93954.74
2018-09-04T23:16:16.770Z,93960.61
2018-09-04T23:18:44.290Z,93961.51
2018-09-04T23:21:11.810Z,93951.51
2018-09-04T23:23:39.290Z,93951.81
2018-09-04T23:26:06.790Z,93952.84
2018-09-04T23:28:34.275Z,93947.82
2018-09-04T23:31:01.774Z,93943.70
2018-09-04T23:33:30.284Z,93953.25
2018-09-04T23:35:58.614Z,93947.70
2018-09-04T23:38:26.140Z,93953.86
2018-09-04T23:40:53.643Z,93948.27
2018-09-04T23:43:21.113Z,93958.27
2018-09-04T23:45:48.625Z,93958.54
2018-09-04T23:48:16.222Z,93957.94
2018-09-04T23:50:43.765Z,93952.66
2018-09-04T23:53:11.231Z,93948.84
2018-09-04T23:55:38.771Z,93946.41
2018-09-04T23:58:06.365Z,93945.23
